Time;durP1;ratioP1;P1;durP2;ratioP2;P2;SDS_P1;SDS_P2;PMS_P1;PMS_P2;Temp;Humidity;BMP_temperature;BMP_pressure;BME280_temperature;BME280_humidity;BME280_pressure;Samples;Min_cycle;Max_cycle;Signal;HPM_P1;HPM_P2
2023/04/19 00:00:51;;;;;;;1.80;1.30;;;;;;;11.82;61.50;99678.59;5053318;28;20045;-72
2023/04/19 00:03:19;;;;;;;0.77;0.77;;;;;;;11.91;61.25;99693.88;5053214;28;20045;-72
2023/04/19 00:05:49;;;;;;;1.30;1.20;;;;;;;11.95;61.35;99687.00;5053224;28;20041;-73
2023/04/19 00:08:17;;;;;;;0.60;0.60;;;;;;;11.97;61.58;99688.69;5053220;28;20123;-72
2023/04/19 00:10:46;;;;;;;1.08;0.93;;;;;;;12.02;61.09;99681.84;5053386;28;20033;-73
2023/04/19 00:13:15;;;;;;;0.65;0.65;;;;;;;12.08;60.93;99676.69;5053140;28;20128;-72
2023/04/19 00:15:46;;;;;;;1.88;1.05;;;;;;;12.13;60.57;99668.13;5053094;28;20049;-72
2023/04/19 00:18:15;;;;;;;1.63;1.52;;;;;;;12.19;60.28;99668.09;5052984;28;20495;-72
2023/04/19 00:20:44;;;;;;;1.10;1.00;;;;;;;12.20;60.24;99664.66;5052971;28;20075;-72
2023/04/19 00:23:13;;;;;;;4.32;2.38;;;;;;;12.22;60.24;99668.91;5053310;28;20048;-72
2023/04/19 00:25:42;;;;;;;2.23;1.70;;;;;;;12.27;60.25;99666.31;5052903;28;20045;-71
2023/04/19 00:28:11;;;;;;;1.20;1.10;;;;;;;12.28;60.34;99657.78;5052912;28;20317;-71
2023/04/19 00:30:39;;;;;;;0.57;0.57;;;;;;;12.28;60.65;99665.47;5053257;28;20084;-71
2023/04/19 00:33:12;;;;;;;1.20;1.10;;;;;;;12.28;60.74;99653.53;5053254;28;20075;-71
2023/04/19 00:35:41;;;;;;;1.90;1.77;;;;;;;12.30;60.87;99659.47;5052853;28;20139;-71
2023/04/19 00:38:10;;;;;;;1.48;0.82;;;;;;;12.33;60.85;99658.59;5051743;28;20049;-71
2023/04/19 00:40:39;;;;;;;0.90;0.90;;;;;;;12.34;60.73;99652.59;5052780;28;20131;-71
2023/04/19 00:43:09;;;;;;;0.50;0.50;;;;;;;12.36;60.40;99645.75;5052856;28;20441;-71
2023/04/19 00:45:38;;;;;;;1.80;1.43;;;;;;;12.41;60.11;99654.25;5053221;28;20518;-71
2023/04/19 00:48:07;;;;;;;0.53;0.53;;;;;;;12.41;60.19;99644.00;5055179;28;20047;-71
2023/04/19 00:50:38;;;;;;;1.55;1.45;;;;;;;12.38;60.21;99642.34;5056872;28;20048;-71
2023/04/19 00:53:08;;;;;;;5.30;1.02;;;;;;;12.37;60.54;99642.34;5055480;28;20131;-71
2023/04/19 00:55:39;;;;;;;1.10;1.00;;;;;;;12.36;60.87;99640.66;5055396;28;20526;-71
2023/04/19 00:58:09;;;;;;;0.88;0.88;;;;;;;12.38;60.88;99631.28;5055089;28;20048;-71
2023/04/19 01:00:38;;;;;;;2.10;1.85;;;;;;;12.42;60.84;99635.50;5056440;28;20041;-71
2023/04/19 01:03:07;;;;;;;1.40;1.23;;;;;;;12.44;60.87;99633.75;5056399;28;20136;-71
2023/04/19 01:05:38;;;;;;;2.10;0.57;;;;;;;12.44;61.05;99624.38;5056330;28;20462;-71
2023/04/19 01:08:07;;;;;;;2.03;1.88;;;;;;;12.40;61.14;99621.88;5056138;28;20102;-71
2023/04/19 01:10:36;;;;;;;0.43;0.43;;;;;;;12.43;61.17;99619.28;5055980;28;20041;-71
2023/04/19 01:13:05;;;;;;;1.05;0.85;;;;;;;12.41;61.30;99608.19;5055058;28;20048;-72
2023/04/19 01:15:33;;;;;;;0.80;0.60;;;;;;;12.44;61.55;99608.16;5055824;28;20106;-71
2023/04/19 01:18:02;;;;;;;1.63;1.27;;;;;;;12.44;61.81;99608.16;5055839;28;20044;-71
2023/04/19 01:20:31;;;;;;;1.52;1.17;;;;;;;12.42;61.66;99607.34;5054519;28;20293;-72
2023/04/19 01:23:01;;;;;;;1.20;1.10;;;;;;;12.42;61.92;99604.78;5055815;28;20503;-71
2023/04/19 01:25:30;;;;;;;4.15;0.90;;;;;;;12.40;62.11;99601.38;5054583;28;20056;-72
2023/04/19 01:28:00;;;;;;;0.47;0.47;;;;;;;12.38;62.22;99603.13;5055767;28;20044;-71
2023/04/19 01:30:29;;;;;;;1.37;1.27;;;;;;;12.37;62.43;99606.53;5055587;28;20514;-71
2023/04/19 01:32:58;;;;;;;0.55;0.55;;;;;;;12.36;62.39;99599.69;5055608;28;20049;-72
2023/04/19 01:35:27;;;;;;;0.73;0.73;;;;;;;12.32;62.74;99592.91;5054375;28;20037;-71
2023/04/19 01:37:56;;;;;;;0.90;0.88;;;;;;;12.30;63.03;99594.66;5055509;28;20037;-71
2023/04/19 01:40:27;;;;;;;1.88;1.77;;;;;;;12.27;63.04;99584.44;5054003;28;20049;-72
2023/04/19 01:42:55;;;;;;;3.33;1.23;;;;;;;12.30;63.04;99582.72;5055421;28;20080;-71
2023/04/19 01:45:26;;;;;;;1.95;1.73;;;;;;;12.31;63.22;99589.50;5055620;28;20084;-72
2023/04/19 01:47:55;;;;;;;0.80;0.70;;;;;;;12.35;63.43;99582.66;5055245;28;20037;-71
2023/04/19 01:50:24;;;;;;;1.08;1.02;;;;;;;12.33;63.76;99589.50;5054141;28;20106;-72
2023/04/19 01:52:53;;;;;;;0.60;0.60;;;;;;;12.30;64.07;99584.41;5055207;28;20510;-72
2023/04/19 01:55:22;;;;;;;1.07;1.03;;;;;;;12.30;64.45;99589.53;5053960;28;20075;-71
2023/04/19 01:57:54;;;;;;;2.88;2.03;;;;;;;12.30;64.50;99584.41;5055192;28;20103;-72
2023/04/19 02:00:24;;;;;;;0.98;0.80;;;;;;;12.28;64.76;99587.00;5053977;28;20067;-72
2023/04/19 02:02:53;;;;;;;0.93;0.90;;;;;;;12.29;64.77;99577.59;5055299;28;20079;-72
2023/04/19 02:05:22;;;;;;;2.60;1.75;;;;;;;12.27;65.36;99581.88;5054341;28;20475;-72
2023/04/19 02:07:51;;;;;;;1.05;1.02;;;;;;;12.28;65.13;99583.59;5055221;28;20086;-72
2023/04/19 02:10:21;;;;;;;1.25;1.15;;;;;;;12.25;65.33;99579.34;5055394;28;20052;-71
2023/04/19 02:12:50;;;;;;;1.37;1.27;;;;;;;12.20;65.31;99573.41;5054335;28;20555;-71
2023/04/19 02:15:21;;;;;;;1.43;1.33;;;;;;;12.12;65.42;99567.50;5053655;28;20037;-72
2023/04/19 02:17:50;;;;;;;5.07;1.48;;;;;;;12.12;65.51;99559.00;5055006;28;20099;-71
2023/04/19 02:20:20;;;;;;;1.15;1.05;;;;;;;12.22;65.70;99571.69;5053652;28;20380;-71
2023/04/19 02:22:49;;;;;;;0.85;0.82;;;;;;;12.17;65.71;99564.91;5054649;28;20517;-72
2023/04/19 02:25:19;;;;;;;0.50;0.50;;;;;;;12.21;65.65;99567.44;5054834;28;20499;-71
2023/04/19 02:27:47;;;;;;;1.75;1.40;;;;;;;12.18;65.48;99572.59;5053383;28;20091;-71
2023/04/19 02:30:20;;;;;;;0.65;0.57;;;;;;;12.17;65.65;99562.34;5054822;28;20073;-72
2023/04/19 02:32:51;;;;;;;0.98;0.98;;;;;;;12.15;65.98;99561.50;5054434;28;20060;-71
2023/04/19 02:35:20;;;;;;;0.80;0.80;;;;;;;11.91;66.17;99522.50;5054632;28;20040;-71
2023/04/19 02:37:49;;;;;;;0.95;0.90;;;;;;;12.15;65.79;99564.06;5054287;28;20049;-71
2023/04/19 02:40:21;;;;;;;1.05;0.98;;;;;;;12.14;65.58;99557.28;5053993;28;20060;-71
2023/04/19 02:42:51;;;;;;;3.72;2.40;;;;;;;12.12;65.77;99548.78;5054479;28;20090;-71
2023/04/19 02:45:23;;;;;;;0.60;0.60;;;;;;;12.12;65.53;99548.78;5054239;28;20071;-70
2023/04/19 02:47:55;;;;;;;1.48;1.25;;;;;;;12.12;65.64;99548.78;5054554;28;20459;-71
2023/04/19 02:50:24;;;;;;;2.03;1.50;;;;;;;12.14;65.43;99541.94;5052876;28;20045;-72
2023/04/19 02:52:53;;;;;;;1.50;1.30;;;;;;;12.12;65.42;99533.44;5054431;28;20083;-72
2023/04/19 02:55:25;;;;;;;1.73;1.63;;;;;;;12.15;65.54;99548.72;5053144;28;20064;-72
2023/04/19 02:58:05;;;;;;;0.90;0.73;;;;;;;12.17;65.46;99541.88;5054288;28;20095;-72
2023/04/19 03:00:42;;;;;;;1.63;1.33;;;;;;;12.19;65.70;99540.19;5052803;28;20049;-72
2023/04/19 03:03:15;;;;;;;0.73;0.73;;;;;;;12.19;65.62;99537.63;5052674;28;20052;-71
2023/04/19 03:05:44;;;;;;;1.80;1.70;;;;;;;12.17;66.03;99544.44;5052880;28;20087;-72
2023/04/19 03:08:13;;;;;;;2.03;1.83;;;;;;;12.18;66.23;99533.34;5052189;28;20091;-72
2023/04/19 03:10:44;;;;;;;1.50;1.40;;;;;;;12.14;66.30;99522.28;5052599;28;20041;-72
2023/04/19 03:13:13;;;;;;;2.33;1.52;;;;;;;12.12;66.50;99533.44;5053987;28;20075;-72
2023/04/19 03:15:45;;;;;;;3.60;1.80;;;;;;;12.09;66.74;99517.22;5052843;28;20399;-71
2023/04/19 03:18:16;;;;;;;1.17;1.00;;;;;;;12.06;66.84;99519.81;5052632;28;20513;-71
2023/04/19 03:20:45;;;;;;;;;;;;;;;12.06;67.12;99513.84;5053214;28;20037;-72
2023/04/19 03:23:13;;;;;;;1.10;0.98;;;;;;;12.06;66.98;99509.59;5052610;28;19975;-72
2023/04/19 03:25:43;;;;;;;0.75;0.75;;;;;;;12.04;67.26;99506.19;5052372;28;20519;-72
2023/04/19 03:28:25;;;;;;;0.98;0.95;;;;;;;12.01;67.19;99501.13;5052934;28;20390;-71
2023/04/19 03:31:07;;;;;;;1.13;1.00;;;;;;;12.01;67.25;99501.13;5053584;28;20048;-71
2023/04/19 03:33:36;;;;;;;1.73;1.40;;;;;;;12.05;67.24;99496.78;5052529;28;20084;-72
2023/04/19 03:36:05;;;;;;;2.60;1.95;;;;;;;12.05;67.51;99495.09;5053500;28;20049;-72
2023/04/19 03:38:34;;;;;;;1.42;1.33;;;;;;;12.07;67.27;99493.38;5052492;28;20060;-72
2023/04/19 03:41:04;;;;;;;;;;;;;;;12.13;67.06;99483.94;5052467;28;20049;-72
2023/04/19 03:43:37;;;;;;;4.65;3.05;;;;;;;12.15;67.19;99483.06;5052504;28;20294;-72
2023/04/19 03:46:08;;;;;;;7.00;3.27;;;;;;;12.15;67.13;99488.19;5053608;28;20044;-73
2023/04/19 03:48:38;;;;;;;22.73;2.35;;;;;;;12.17;66.83;99485.59;5052152;28;20076;-72
2023/04/19 03:51:07;;;;;;;1.13;1.02;;;;;;;12.20;66.88;99490.69;5052389;28;20056;-73
2023/04/19 03:53:36;;;;;;;1.00;0.97;;;;;;;12.22;66.97;99494.06;5052317;28;20088;-73
2023/04/19 03:56:05;;;;;;;4.38;2.55;;;;;;;12.19;66.88;99478.78;5052376;28;20048;-72
2023/04/19 03:58:36;;;;;;;1.30;1.20;;;;;;;12.23;67.28;99488.09;5052011;28;20041;-73
2023/04/19 04:01:18;;;;;;;2.35;1.67;;;;;;;12.21;67.22;99483.00;5053165;28;20045;-73
2023/04/19 04:03:47;;;;;;;2.10;1.42;;;;;;;12.24;67.42;99487.25;5052069;28;20041;-73
2023/04/19 04:06:18;;;;;;;2.80;2.15;;;;;;;12.20;67.01;99481.31;5053467;28;20045;-73
2023/04/19 04:08:48;;;;;;;1.58;1.38;;;;;;;12.24;67.67;99477.00;5052340;28;20040;-73
2023/04/19 04:11:17;;;;;;;36.60;2.07;;;;;;;12.21;67.81;99477.03;5053088;28;20037;-72
2023/04/19 04:13:49;;;;;;;1.85;1.75;;;;;;;12.23;68.20;99488.09;5053244;28;20485;-72
2023/04/19 04:16:24;;;;;;;4.22;2.05;;;;;;;12.23;68.15;99475.31;5053353;28;20072;-72
2023/04/19 04:18:54;;;;;;;2.05;1.80;;;;;;;12.22;68.42;99478.72;5053308;28;20052;-73
2023/04/19 04:21:27;;;;;;;2.78;1.48;;;;;;;12.19;68.62;99478.78;5054871;28;20483;-73
2023/04/19 04:24:00;;;;;;;3.47;1.90;;;;;;;12.20;68.96;99480.44;5055695;28;20503;-73
2023/04/19 04:26:40;;;;;;;0.70;0.70;;;;;;;12.18;69.24;99470.25;5056996;28;20406;-73
2023/04/19 04:29:17;;;;;;;1.48;1.38;;;;;;;12.16;69.53;99466.00;5057131;28;20060;-72
2023/04/19 04:31:48;;;;;;;2.15;1.92;;;;;;;12.20;69.46;99475.34;5055588;28;20045;-73
2023/04/19 04:34:21;;;;;;;4.47;2.33;;;;;;;12.21;69.53;99466.81;5056975;28;20048;-73
2023/04/19 04:36:56;;;;;;;2.30;1.33;;;;;;;12.22;69.63;99468.47;5055714;28;20514;-72
2023/04/19 04:39:27;;;;;;;2.15;1.83;;;;;;;12.23;69.46;99470.19;5055474;28;20041;-72
2023/04/19 04:41:56;;;;;;;1.10;1.02;;;;;;;12.24;69.48;99461.66;5056138;28;20052;-72
2023/04/19 04:44:26;;;;;;;;;;;;;;;12.27;69.46;99466.72;5055871;28;20510;-72
2023/04/19 04:46:57;;;;;;;1.40;1.30;;;;;;;12.28;69.84;99464.16;5055823;28;19924;-73
2023/04/19 04:49:28;;;;;;;3.25;2.13;;;;;;;12.28;69.65;99465.88;5056386;28;20145;-72
2023/04/19 04:51:59;;;;;;;1.23;1.02;;;;;;;12.31;69.58;99473.53;5056974;28;20049;-72
2023/04/19 04:54:32;;;;;;;3.67;2.67;;;;;;;12.29;69.88;99463.28;5056209;28;20056;-72
2023/04/19 04:57:02;;;;;;;3.20;2.17;;;;;;;12.31;69.89;99458.16;5054995;28;20044;-73
2023/04/19 04:59:32;;;;;;;2.42;1.67;;;;;;;12.23;69.92;99450.56;5055564;28;20049;-72
2023/04/19 05:02:02;;;;;;;3.23;2.43;;;;;;;12.29;70.15;99450.50;5056080;28;20041;-73
2023/04/19 05:04:31;;;;;;;3.35;2.50;;;;;;;12.20;70.19;99434.41;5056175;28;20050;-72
2023/04/19 05:07:00;;;;;;;1.33;1.23;;;;;;;12.35;70.45;99454.69;5056305;28;20495;-72
2023/04/19 05:09:29;;;;;;;2.07;1.30;;;;;;;12.38;70.32;99459.78;5054801;28;20045;-72
2023/04/19 05:11:59;;;;;;;3.08;1.92;;;;;;;12.37;70.68;99463.19;5056306;28;20060;-74
2023/04/19 05:14:28;;;;;;;1.20;1.13;;;;;;;12.38;70.64;99459.78;5055906;28;20039;-74
2023/04/19 05:16:57;;;;;;;3.42;2.65;;;;;;;12.33;70.71;99451.31;5054705;28;20045;-73
2023/04/19 05:19:27;;;;;;;2.75;2.22;;;;;;;12.38;70.72;99452.13;5054749;28;20043;-73
2023/04/19 05:22:03;;;;;;;1.13;0.82;;;;;;;12.41;70.89;99449.50;5055744;28;20049;-74
2023/04/19 05:24:32;;;;;;;2.43;2.03;;;;;;;12.43;70.94;99455.47;5054504;28;20045;-73
2023/04/19 05:27:01;;;;;;;1.38;1.27;;;;;;;12.41;70.94;99454.63;5055930;28;20041;-73
2023/04/19 05:29:31;;;;;;;0.80;0.80;;;;;;;12.42;70.94;99452.06;5055905;28;20037;-71
2023/04/19 05:32:01;;;;;;;1.60;1.48;;;;;;;12.45;70.94;99451.19;5054044;28;20079;-73
2023/04/19 05:34:34;;;;;;;2.40;2.00;;;;;;;12.49;71.05;99450.25;5054516;28;20458;-73
2023/04/19 05:37:06;;;;;;;3.83;1.20;;;;;;;12.47;70.87;99440.06;5055609;28;20117;-73
2023/04/19 05:39:34;;;;;;;11.45;2.03;;;;;;;12.54;70.82;99451.06;5053956;28;20049;-74
2023/04/19 05:42:04;;;;;;;0.90;0.83;;;;;;;12.58;70.80;99442.47;5055862;28;20045;-73
2023/04/19 05:44:33;;;;;;;2.42;1.88;;;;;;;12.65;70.72;99444.06;5054446;28;20491;-72
2023/04/19 05:47:02;;;;;;;1.60;1.50;;;;;;;12.58;70.70;99424.53;5054165;28;20048;-73
2023/04/19 05:49:43;;;;;;;1.90;1.67;;;;;;;12.71;70.64;99434.63;5054731;28;20079;-73
2023/04/19 05:52:19;;;;;;;2.00;1.85;;;;;;;12.76;70.65;99432.00;5055212;28;20076;-72
2023/04/19 05:54:54;;;;;;;1.50;1.23;;;;;;;12.80;70.52;99428.53;5055285;28;20044;-72
2023/04/19 05:57:22;;;;;;;2.60;1.60;;;;;;;12.85;70.21;99431.00;5054047;28;20486;-72
2023/04/19 05:59:51;;;;;;;2.97;1.60;;;;;;;12.89;70.20;99425.81;5054181;28;20403;-72
2023/04/19 06:02:24;;;;;;;1.35;1.25;;;;;;;12.98;69.96;99428.25;5054848;28;20037;-72
2023/04/19 06:04:56;;;;;;;2.65;1.77;;;;;;;13.02;69.67;99427.34;5054950;28;20041;-74
2023/04/19 06:07:30;;;;;;;2.42;1.42;;;;;;;13.08;69.69;99424.72;5054042;28;20084;-72
2023/04/19 06:10:07;;;;;;;1.05;1.00;;;;;;;13.15;69.52;99426.31;5053912;28;20033;-72
2023/04/19 06:12:35;;;;;;;0.75;0.75;;;;;;;13.18;69.19;99433.09;5053745;28;20045;-73
2023/04/19 06:15:06;;;;;;;2.38;1.83;;;;;;;13.21;69.53;99431.38;5053451;28;20041;-73
2023/04/19 06:17:35;;;;;;;1.90;1.20;;;;;;;13.26;69.47;99432.13;5053891;28;20045;-73
2023/04/19 06:20:07;;;;;;;5.78;1.80;;;;;;;13.20;69.83;99429.66;5054574;28;20051;-73
2023/04/19 06:22:36;;;;;;;5.13;0.77;;;;;;;13.23;69.73;99437.31;5054587;28;20033;-73
2023/04/19 06:25:05;;;;;;;1.15;1.05;;;;;;;13.25;69.55;99437.28;5054589;28;20133;-73
2023/04/19 06:27:34;;;;;;;1.17;1.00;;;;;;;13.30;69.77;99435.47;5054715;28;20049;-72
2023/04/19 06:30:04;;;;;;;1.88;1.58;;;;;;;13.34;69.27;99437.97;5054389;28;20045;-73
2023/04/19 06:32:32;;;;;;;1.65;1.15;;;;;;;13.42;68.99;99436.16;5054356;28;20403;-73
2023/04/19 06:35:01;;;;;;;1.63;1.08;;;;;;;13.53;68.59;99437.69;5054709;28;20037;-73
2023/04/19 06:37:33;;;;;;;2.65;1.98;;;;;;;13.53;68.37;99422.31;5054260;28;20044;-71
2023/04/19 06:40:03;;;;;;;2.35;1.30;;;;;;;13.52;68.31;99434.28;5054497;28;20084;-72
2023/04/19 06:42:32;;;;;;;1.63;1.52;;;;;;;13.42;68.25;99430.16;5053635;28;20051;-72
2023/04/19 06:45:01;;;;;;;2.83;1.80;;;;;;;13.46;68.39;99431.78;5055100;28;20061;-72
2023/04/19 06:47:32;;;;;;;3.53;2.42;;;;;;;13.51;68.42;99426.63;5054249;28;20068;-72
2023/04/19 06:50:03;;;;;;;3.60;2.53;;;;;;;13.53;68.28;99427.44;5054314;28;20053;-72
2023/04/19 06:52:33;;;;;;;1.63;1.52;;;;;;;13.51;68.00;99419.75;5053864;28;20052;-72
2023/04/19 06:55:02;;;;;;;1.23;1.13;;;;;;;13.50;67.83;99424.91;5053905;28;20049;-72
2023/04/19 06:57:31;;;;;;;2.38;1.38;;;;;;;13.47;67.83;99425.81;5054309;28;20045;-72
2023/04/19 07:00:00;;;;;;;1.80;1.65;;;;;;;13.49;68.31;99426.63;5053920;28;20044;-72
2023/04/19 07:02:28;;;;;;;1.77;1.40;;;;;;;13.42;68.66;99418.19;5053863;28;20051;-73
2023/04/19 07:04:57;;;;;;;4.75;2.90;;;;;;;13.42;68.06;99425.03;5054130;28;20037;-72
2023/04/19 07:07:26;;;;;;;3.05;2.10;;;;;;;13.43;68.28;99424.19;5052677;28;20037;-72
2023/04/19 07:10:08;;;;;;;3.35;2.25;;;;;;;13.42;68.05;99410.50;5052785;28;20037;-73
2023/04/19 07:15:46;;;;;;;2.10;1.73;;;;;;;13.51;68.34;99429.19;5032062;28;20041;-72
2023/04/19 07:18:41;;;;;;;1.95;1.17;;;;;;;13.59;68.14;99417.06;5033738;28;20069;-72
2023/04/19 07:26:48;;;;;;;1.27;1.13;;;;;;;13.84;67.57;99408.94;5025724;28;20041;-72
2023/04/19 07:34:03;;;;;;;2.25;2.05;;;;;;;14.15;65.96;99409.19;5033266;28;20061;-72
2023/04/19 07:36:34;;;;;;;2.08;1.40;;;;;;;14.17;65.69;99407.44;5033693;28;20046;-72
2023/04/19 07:39:03;;;;;;;5.93;2.50;;;;;;;14.28;65.55;99400.34;5033615;28;20431;-74
2023/04/19 07:41:32;;;;;;;2.85;1.38;;;;;;;14.44;65.25;99412.06;5033282;28;20053;-72
2023/04/19 07:44:03;;;;;;;3.40;2.65;;;;;;;14.55;64.94;99404.97;5033247;28;20048;-72
2023/04/19 07:46:32;;;;;;;4.00;2.78;;;;;;;14.64;64.66;99398.78;5033398;28;20518;-74
2023/04/19 07:49:01;;;;;;;1.83;1.53;;;;;;;14.73;64.09;99389.13;5033285;28;20037;-72
2023/04/19 07:51:31;;;;;;;3.08;2.45;;;;;;;14.84;63.49;99396.63;5033450;28;20061;-72
2023/04/19 07:54:00;;;;;;;1.30;0.95;;;;;;;14.92;64.08;99384.44;5038641;28;20430;-72
2023/04/19 07:56:30;;;;;;;1.50;1.40;;;;;;;14.89;62.82;99392.22;5057210;28;20076;-71
2023/04/19 07:58:58;;;;;;;1.63;1.50;;;;;;;15.06;62.20;99381.56;5055988;28;20064;-71
2023/04/19 08:01:36;;;;;;;1.20;1.08;;;;;;;15.13;61.75;99383.94;5056961;28;20045;-72
2023/04/19 08:04:06;;;;;;;3.05;2.10;;;;;;;15.37;61.80;99383.34;5057362;28;20048;-72
2023/04/19 08:06:39;;;;;;;2.47;2.28;;;;;;;15.63;61.45;99377.56;5057693;28;20067;-72
2023/04/19 08:09:08;;;;;;;2.15;1.95;;;;;;;15.81;60.86;99379.66;5057077;28;20144;-72
2023/04/19 08:11:36;;;;;;;1.85;1.48;;;;;;;15.83;60.67;99357.31;5057073;28;20076;-72
2023/04/19 08:14:05;;;;;;;4.10;2.17;;;;;;;16.05;59.86;99371.25;5057363;28;20449;-72
2023/04/19 08:16:54;;;;;;;2.37;1.37;;;;;;;16.35;60.30;99366.13;5056810;28;20051;-74
2023/04/19 08:19:43;;;;;;;3.60;2.20;;;;;;;16.54;58.67;99367.31;5057393;28;20032;-73
2023/04/19 08:22:13;;;;;;;2.83;1.67;;;;;;;16.58;58.09;99374.06;5056851;28;20289;-72
2023/04/19 08:24:41;;;;;;;2.90;1.83;;;;;;;16.61;57.47;99372.22;5056690;28;20048;-72
2023/04/19 08:27:11;;;;;;;2.50;2.30;;;;;;;16.62;57.74;99365.34;5056836;28;20044;-71
2023/04/19 08:29:39;;;;;;;2.78;2.05;;;;;;;16.52;57.95;99369.09;5057009;28;20057;-71
2023/04/19 08:32:08;;;;;;;5.25;2.53;;;;;;;16.50;57.71;99370.84;5056818;28;20128;-70
2023/04/19 08:34:39;;;;;;;4.83;2.50;;;;;;;16.51;57.63;99372.50;5056563;28;20135;-72
2023/04/19 08:37:08;;;;;;;2.50;2.08;;;;;;;16.50;56.93;99365.69;5056707;28;20281;-73
2023/04/19 08:39:38;;;;;;;2.90;2.40;;;;;;;16.62;57.47;99360.19;5056463;28;20049;-73
2023/04/19 08:42:09;;;;;;;4.35;2.08;;;;;;;16.56;57.36;99360.38;5056559;28;20045;-73
2023/04/19 08:45:02;;;;;;;5.07;2.58;;;;;;;16.44;57.48;99358.13;5056574;28;20039;-73
2023/04/19 08:47:52;;;;;;;3.53;3.22;;;;;;;16.40;57.67;99362.53;5056431;28;20041;-72
2023/04/19 08:50:30;;;;;;;2.05;1.85;;;;;;;16.36;58.11;99365.25;5056473;28;20487;-73
2023/04/19 08:53:15;;;;;;;5.20;2.20;;;;;;;16.36;57.27;99362.69;5056309;28;20487;-73
2023/04/19 08:55:57;;;;;;;3.40;1.90;;;;;;;16.32;57.67;99350.75;5056509;28;20407;-72
2023/04/19 08:58:46;;;;;;;3.65;1.48;;;;;;;16.20;57.30;99353.69;5056326;28;20483;-72
2023/04/19 09:01:18;;;;;;;0.80;0.80;;;;;;;16.26;58.19;99348.38;5056277;28;20075;-73
2023/04/19 09:04:04;;;;;;;4.65;2.15;;;;;;;16.41;58.45;99351.31;5056191;28;20045;-73
2023/04/19 09:06:54;;;;;;;1.52;1.42;;;;;;;16.44;58.04;99351.25;5055256;28;20041;-73
2023/04/19 09:09:24;;;;;;;;;;;;;;;16.41;57.72;99347.94;5056731;28;20045;-73
2023/04/19 09:11:58;;;;;;;2.33;1.48;;;;;;;16.49;57.38;99348.53;5056563;28;20347;-72
2023/04/19 09:14:29;;;;;;;2.78;1.73;;;;;;;16.42;56.92;99321.28;5056306;28;20045;-73
2023/04/19 09:17:13;;;;;;;8.23;2.38;;;;;;;16.75;56.44;99343.44;5056230;28;20041;-72
2023/04/19 09:19:46;;;;;;;1.65;1.52;;;;;;;16.94;55.92;99347.13;5056110;28;20568;-71
2023/04/19 09:22:15;;;;;;;2.05;1.35;;;;;;;16.86;54.44;99343.13;5056153;28;20384;-72
2023/04/19 09:24:44;;;;;;;1.40;0.73;;;;;;;16.88;53.48;99341.34;5055609;28;20041;-72
2023/04/19 09:27:36;;;;;;;1.15;1.10;;;;;;;16.79;53.82;99347.66;5055724;28;20072;-71
2023/04/19 09:30:06;;;;;;;1.67;0.85;;;;;;;16.64;53.15;99342.94;5055680;28;20131;-72
2023/04/19 09:32:47;;;;;;;0.77;0.75;;;;;;;16.46;52.92;99346.06;5055477;28;20052;-72
2023/04/19 09:35:18;;;;;;;0.57;0.55;;;;;;;16.31;52.72;99351.66;5055526;28;20055;-71
2023/04/19 09:38:00;;;;;;;0.50;0.50;;;;;;;16.20;52.66;99348.53;5056403;28;20460;-72
2023/04/19 09:40:31;;;;;;;0.50;0.50;;;;;;;16.15;52.52;99347.84;5055273;28;20045;-72
2023/04/19 09:43:02;;;;;;;0.70;0.70;;;;;;;15.99;52.71;99357.72;5054394;28;20047;-73
2023/04/19 09:45:51;;;;;;;0.47;0.47;;;;;;;15.87;52.46;99358.91;5056004;28;20033;-71
2023/04/19 09:48:23;;;;;;;0.47;0.47;;;;;;;15.66;52.44;99356.91;5055151;28;20086;-71
2023/04/19 09:50:54;;;;;;;0.65;0.65;;;;;;;15.63;52.22;99354.41;5055173;28;20045;-72
2023/04/19 09:53:34;;;;;;;0.55;0.55;;;;;;;15.63;52.74;99359.56;5055232;28;20052;-74
2023/04/19 09:56:04;;;;;;;0.30;0.30;;;;;;;15.56;51.91;99362.31;5055433;28;20110;-72
2023/04/19 09:58:35;;;;;;;0.50;0.50;;;;;;;15.47;51.83;99358.28;5055109;28;20049;-71
2023/04/19 10:01:21;;;;;;;0.55;0.55;;;;;;;15.47;51.71;99362.56;5055348;28;20048;-72
2023/04/19 10:03:51;;;;;;;0.40;0.40;;;;;;;15.47;52.36;99352.28;5055260;28;20480;-70
2023/04/19 10:06:22;;;;;;;0.73;0.65;;;;;;;15.54;52.09;99354.66;5053946;28;20045;-73
2023/04/19 10:08:55;;;;;;;0.50;0.50;;;;;;;15.48;51.54;99354.81;5054874;28;20049;-71
2023/04/19 10:11:26;;;;;;;0.60;0.60;;;;;;;15.43;52.04;99366.91;5055398;28;20115;-70
2023/04/19 10:14:00;;;;;;;0.40;0.40;;;;;;;15.19;51.98;99321.22;5055126;28;20509;-72
2023/04/19 10:16:31;;;;;;;2.60;1.33;;;;;;;15.38;52.18;99358.44;5054787;28;20404;-70
2023/04/19 10:19:02;;;;;;;0.85;0.85;;;;;;;15.32;52.15;99348.34;5053989;28;20043;-74
2023/04/19 10:21:32;;;;;;;0.65;0.57;;;;;;;15.28;51.62;99362.16;5055552;28;20057;-71
2023/04/19 10:24:01;;;;;;;0.60;0.60;;;;;;;15.19;50.99;99354.66;5054377;28;20128;-71
2023/04/19 10:26:30;;;;;;;0.65;0.50;;;;;;;15.21;51.27;99351.16;5055136;28;20049;-70
2023/04/19 10:29:00;;;;;;;0.67;0.67;;;;;;;15.26;50.43;99344.19;5054701;28;20095;-71
2023/04/19 10:31:30;;;;;;;0.65;0.65;;;;;;;15.09;51.10;99330.91;5054712;28;20305;-72
2023/04/19 10:33:59;;;;;;;;;;;;;;;15.17;50.52;99348.72;5055373;28;20438;-70
2023/04/19 10:36:28;;;;;;;2.33;1.67;;;;;;;15.22;50.21;99336.59;5053240;28;19928;-71
2023/04/19 10:38:57;;;;;;;0.40;0.40;;;;;;;15.18;50.28;99304.13;5054313;28;20079;-71
2023/04/19 10:41:57;;;;;;;0.47;0.47;;;;;;;15.51;49.96;99329.00;5054187;28;20087;-71
2023/04/19 10:44:27;;;;;;;0.40;0.40;;;;;;;15.65;50.40;99339.78;5054175;28;20502;-73
2023/04/19 10:46:58;;;;;;;0.70;0.70;;;;;;;15.81;50.03;99333.31;5054505;28;20466;-69
2023/04/19 10:49:28;;;;;;;0.77;0.77;;;;;;;15.87;49.65;99322.88;5054384;28;20051;-71
2023/04/19 10:51:59;;;;;;;0.30;0.30;;;;;;;15.94;49.35;99334.69;5054194;28;20140;-72
2023/04/19 10:54:30;;;;;;;0.40;0.40;;;;;;;16.06;49.56;99331.75;5054324;28;20045;-72
2023/04/19 10:57:04;;;;;;;0.40;0.40;;;;;;;16.29;50.23;99325.13;5054070;28;20059;-72
2023/04/19 10:59:35;;;;;;;0.43;0.43;;;;;;;16.48;50.11;99326.25;5053960;28;20056;-70
2023/04/19 11:02:26;;;;;;;0.57;0.52;;;;;;;16.62;49.02;99330.13;5053147;28;20507;-74
2023/04/19 11:05:02;;;;;;;0.30;0.30;;;;;;;16.59;48.44;99324.22;5054360;28;20069;-72
2023/04/19 11:07:40;;;;;;;1.15;0.70;;;;;;;16.54;48.67;99326.09;5052728;28;20518;-72
2023/04/19 11:10:11;;;;;;;0.30;0.30;;;;;;;16.45;48.19;99326.34;5053838;28;20044;-72
2023/04/19 11:12:44;;;;;;;0.38;0.38;;;;;;;16.22;47.91;99316.69;5053756;28;20060;-70
2023/04/19 11:15:14;;;;;;;0.50;0.50;;;;;;;16.22;48.09;99315.88;5053993;28;20068;-69
2023/04/19 11:17:43;;;;;;;0.90;0.82;;;;;;;16.16;48.08;99314.31;5053721;28;20041;-72
2023/04/19 11:20:13;;;;;;;0.87;0.63;;;;;;;16.27;47.91;99312.25;5053870;28;20037;-71
2023/04/19 11:22:43;;;;;;;0.50;0.50;;;;;;;16.34;48.07;99313.75;5053654;28;20048;-70
2023/04/19 11:25:13;;;;;;;0.40;0.40;;;;;;;16.26;48.00;99304.59;5053450;28;20060;-70
2023/04/19 11:27:44;;;;;;;0.50;0.50;;;;;;;16.26;48.48;99310.59;5054153;28;20045;-71
2023/04/19 11:30:18;;;;;;;0.52;0.52;;;;;;;16.41;48.94;99311.88;5053484;28;20048;-70
2023/04/19 11:32:48;;;;;;;0.80;0.80;;;;;;;16.47;48.71;99319.41;5053946;28;20487;-71
2023/04/19 11:35:20;;;;;;;1.05;0.98;;;;;;;16.52;49.02;99312.41;5054004;28;20392;-72
2023/04/19 11:37:49;;;;;;;0.85;0.85;;;;;;;16.60;49.40;99315.59;5053520;28;20128;-71
2023/04/19 11:40:20;;;;;;;0.90;0.82;;;;;;;16.39;48.94;99316.19;5053221;28;20110;-70
2023/04/19 11:42:55;;;;;;;0.60;0.60;;;;;;;16.30;49.05;99290.72;5053607;28;20127;-72
2023/04/19 11:45:28;;;;;;;0.55;0.55;;;;;;;16.44;49.67;99322.91;5053344;28;20045;-70
2023/04/19 11:48:02;;;;;;;0.77;0.77;;;;;;;16.48;49.99;99318.53;5053638;28;20510;-70
2023/04/19 11:50:36;;;;;;;0.40;0.40;;;;;;;16.57;49.95;99323.41;5053090;28;20049;-70
2023/04/19 11:53:15;;;;;;;0.68;0.68;;;;;;;16.86;49.66;99322.50;5053644;28;20160;-72
2023/04/19 11:55:45;;;;;;;0.57;0.57;;;;;;;17.12;48.93;99313.03;5053176;28;20102;-71
2023/04/19 11:58:28;;;;;;;0.63;0.63;;;;;;;17.36;49.36;99314.81;5053314;28;20053;-72
2023/04/19 12:01:05;;;;;;;0.50;0.50;;;;;;;17.43;49.04;99321.44;5053204;28;20162;-72
2023/04/19 12:03:35;;;;;;;0.55;0.55;;;;;;;17.55;49.64;99319.34;5053155;28;20060;-72
2023/04/19 12:06:07;;;;;;;0.60;0.60;;;;;;;17.62;49.17;99320.81;5053550;28;20072;-72
2023/04/19 12:08:39;;;;;;;0.60;0.60;;;;;;;17.81;48.95;99314.97;5053153;28;20110;-70